Time;durP1;ratioP1;P1;durP2;ratioP2;P2;SDS_P1;SDS_P2;PMS_P1;PMS_P2;Temp;Humidity;BMP_temperature;BMP_pressure;BME280_temperature;BME280_humidity;BME280_pressure;Samples;Min_cycle;Max_cycle;Signal;HPM_P1;HPM_P2
2023/09/30 00:00:14;;;;;;;4.30;3.95;;;18.50;99.90;;;;;;5041485;28;20265;-72
2023/09/30 00:02:41;;;;;;;5.07;4.40;;;18.50;99.90;;;;;;5037097;28;20272;-71
2023/09/30 00:05:10;;;;;;;5.22;4.72;;;18.50;99.90;;;;;;5036485;28;20199;-72
2023/09/30 00:07:37;;;;;;;5.10;4.70;;;18.40;99.90;;;;;;5037237;28;20238;-72
2023/09/30 00:10:04;;;;;;;5.07;4.68;;;18.40;99.90;;;;;;5039440;28;20222;-72
2023/09/30 00:12:33;;;;;;;5.03;4.63;;;18.50;99.90;;;;;;5042969;28;20289;-72
2023/09/30 00:15:00;;;;;;;4.25;3.95;;;18.50;99.90;;;;;;5037952;28;20191;-72
2023/09/30 00:17:28;;;;;;;4.72;4.32;;;18.50;99.90;;;;;;5042618;28;20263;-72
2023/09/30 00:19:56;;;;;;;4.90;4.50;;;18.50;99.90;;;;;;5039339;28;20238;-72
2023/09/30 00:22:23;;;;;;;5.95;5.35;;;18.50;99.90;;;;;;5038073;28;20325;-73
2023/09/30 00:24:50;;;;;;;6.90;5.30;;;18.50;99.90;;;;;;5038155;28;20207;-75
2023/09/30 00:27:17;;;;;;;5.10;4.70;;;18.40;99.90;;;;;;5039749;28;20224;-73
2023/09/30 00:29:46;;;;;;;4.78;4.38;;;18.30;99.90;;;;;;5042954;28;20265;-72
2023/09/30 00:32:13;;;;;;;5.25;4.75;;;18.30;99.90;;;;;;5039913;28;20304;-73
2023/09/30 00:34:40;;;;;;;5.40;5.00;;;18.20;99.90;;;;;;5041511;28;20208;-72
2023/09/30 00:37:07;;;;;;;5.20;4.80;;;18.20;99.90;;;;;;5040143;28;20465;-74
2023/09/30 00:39:35;;;;;;;5.43;4.90;;;18.10;99.90;;;;;;5037314;28;20293;-73
2023/09/30 00:42:04;;;;;;;5.03;4.63;;;18.10;99.90;;;;;;5043746;28;20235;-73
2023/09/30 00:44:31;;;;;;;4.93;4.53;;;18.00;99.90;;;;;;5039079;28;20207;-73
2023/09/30 00:47:00;;;;;;;4.85;4.45;;;18.00;99.90;;;;;;5038403;28;20778;-73
2023/09/30 00:49:28;;;;;;;5.30;4.80;;;18.00;99.90;;;;;;5039396;28;20308;-73
2023/09/30 00:51:58;;;;;;;5.32;4.93;;;18.00;99.90;;;;;;5039075;28;20762;-73
2023/09/30 00:54:26;;;;;;;5.20;4.75;;;18.00;99.90;;;;;;5037929;28;20284;-74
2023/09/30 00:56:57;;;;;;;5.18;4.50;;;18.00;99.90;;;;;;5040809;28;20863;-73
2023/09/30 00:59:26;;;;;;;5.22;4.82;;;18.00;99.90;;;;;;5039847;28;20195;-73
2023/09/30 01:01:55;;;;;;;5.45;4.90;;;18.00;99.90;;;;;;5039630;28;20276;-73
2023/09/30 01:04:24;;;;;;;5.10;4.70;;;18.00;99.90;;;;;;5034691;28;20276;-76
2023/09/30 01:06:51;;;;;;;5.35;4.88;;;17.90;99.90;;;;;;5040482;28;20280;-74
2023/09/30 01:09:19;;;;;;;4.93;4.53;;;17.90;99.90;;;;;;5040570;28;20552;-74
2023/09/30 01:11:46;;;;;;;5.22;4.68;;;17.90;99.90;;;;;;5039918;28;20246;-74
2023/09/30 01:14:26;;;;;;;5.05;4.65;;;17.90;99.90;;;;;;5038338;28;20300;-73
2023/09/30 01:16:54;;;;;;;5.07;4.63;;;17.80;99.90;;;;;;5039804;28;20222;-73
2023/09/30 01:19:24;;;;;;;4.93;4.45;;;17.80;99.90;;;;;;5034561;28;20886;-74
2023/09/30 01:21:56;;;;;;;5.30;4.80;;;17.80;99.90;;;;;;5040009;28;20199;-73
2023/09/30 01:24:23;;;;;;;5.10;4.70;;;17.80;99.90;;;;;;5038846;28;20222;-74
2023/09/30 01:26:50;;;;;;;5.20;4.70;;;17.80;99.90;;;;;;5039854;28;20241;-75
2023/09/30 01:29:17;;;;;;;4.50;4.10;;;17.80;99.90;;;;;;5040137;28;20748;-74
2023/09/30 01:31:47;;;;;;;5.13;4.72;;;17.80;99.90;;;;;;5040752;28;20310;-75
2023/09/30 01:34:15;;;;;;;5.15;4.65;;;17.70;99.90;;;;;;5037849;28;20206;-73
2023/09/30 01:36:42;;;;;;;5.65;5.25;;;17.70;99.90;;;;;;5038743;28;20575;-74
2023/09/30 01:39:11;;;;;;;5.35;4.85;;;17.70;99.90;;;;;;5041671;28;20896;-74
2023/09/30 01:41:38;;;;;;;5.28;4.88;;;17.70;99.90;;;;;;5037801;28;20201;-76
2023/09/30 01:44:06;;;;;;;5.35;4.90;;;17.70;99.90;;;;;;5037200;28;20206;-73
2023/09/30 01:46:33;;;;;;;5.28;4.88;;;17.70;99.90;;;;;;5039798;28;20219;-74
2023/09/30 01:49:00;;;;;;;4.75;4.35;;;17.60;99.90;;;;;;5037017;28;20208;-73
2023/09/30 01:51:28;;;;;;;4.78;4.47;;;17.60;99.90;;;;;;5039448;28;20269;-74
2023/09/30 01:53:55;;;;;;;5.00;4.50;;;17.60;99.90;;;;;;5038733;28;20214;-73
2023/09/30 01:56:23;;;;;;;5.10;4.60;;;17.60;99.90;;;;;;5035327;28;20228;-72
2023/09/30 01:58:50;;;;;;;4.90;4.60;;;17.60;99.90;;;;;;5040491;28;20212;-72
2023/09/30 02:01:18;;;;;;;4.65;4.30;;;17.70;99.90;;;;;;5033165;28;20191;-72
2023/09/30 02:03:45;;;;;;;5.25;4.75;;;17.70;99.90;;;;;;5039138;28;20282;-72
2023/09/30 02:06:12;;;;;;;5.22;4.82;;;17.60;99.90;;;;;;5043975;28;20227;-75
2023/09/30 02:08:39;;;;;;;5.43;4.93;;;17.60;99.90;;;;;;5040349;28;20202;-72
2023/09/30 02:11:06;;;;;;;5.10;4.70;;;17.60;99.90;;;;;;5034696;28;20385;-72
2023/09/30 02:13:36;;;;;;;5.63;5.20;;;17.60;99.90;;;;;;5034417;28;20203;-72
2023/09/30 02:16:04;;;;;;;5.18;4.78;;;17.60;99.90;;;;;;5036615;28;20698;-72
2023/09/30 02:18:32;;;;;;;5.40;4.90;;;17.60;99.90;;;;;;5035965;28;20716;-72
2023/09/30 02:21:00;;;;;;;5.20;4.80;;;17.60;99.90;;;;;;5035841;28;20297;-73
2023/09/30 02:23:27;;;;;;;5.30;4.90;;;17.60;99.90;;;;;;5036709;28;20199;-72
2023/09/30 02:25:54;;;;;;;5.45;5.00;;;17.60;99.90;;;;;;5033738;28;20292;-73
2023/09/30 02:28:21;;;;;;;5.18;4.78;;;17.60;99.90;;;;;;5035533;28;20191;-73
2023/09/30 02:30:49;;;;;;;4.85;4.47;;;17.60;99.90;;;;;;5028837;28;20673;-72
2023/09/30 02:33:17;;;;;;;5.25;4.85;;;17.60;99.90;;;;;;5035309;28;20345;-72
2023/09/30 02:35:47;;;;;;;5.43;4.93;;;17.60;99.90;;;;;;5036706;28;20231;-72
2023/09/30 02:38:15;;;;;;;5.50;5.00;;;17.60;99.90;;;;;;5054925;28;20215;-74
2023/09/30 02:40:46;;;;;;;5.80;5.05;;;17.50;99.90;;;;;;5033037;28;20692;-75
2023/09/30 02:43:13;;;;;;;5.22;4.82;;;17.50;99.90;;;;;;5040914;28;20233;-73
2023/09/30 02:45:40;;;;;;;5.20;4.80;;;17.50;99.90;;;;;;5037507;28;20229;-73
2023/09/30 02:48:09;;;;;;;5.30;4.68;;;17.50;99.90;;;;;;5036098;28;20881;-72
2023/09/30 02:50:36;;;;;;;5.68;5.18;;;17.50;99.90;;;;;;5039313;28;20290;-74
2023/09/30 02:53:04;;;;;;;5.38;4.93;;;17.50;99.90;;;;;;5034775;28;20856;-72
2023/09/30 02:55:31;;;;;;;5.00;4.68;;;17.40;99.90;;;;;;5034254;28;20233;-73
2023/09/30 02:57:58;;;;;;;5.50;5.10;;;17.40;99.90;;;;;;5037759;28;20194;-73
2023/09/30 03:00:26;;;;;;;5.10;4.70;;;17.30;99.90;;;;;;5037209;28;20203;-71
2023/09/30 03:02:54;;;;;;;5.70;5.20;;;17.30;99.90;;;;;;5037905;28;20742;-72
2023/09/30 03:05:23;;;;;;;4.93;4.53;;;17.30;99.90;;;;;;5038322;28;20223;-72
2023/09/30 03:07:51;;;;;;;5.50;5.10;;;17.30;99.90;;;;;;5035415;28;20199;-72
2023/09/30 03:10:20;;;;;;;5.35;4.85;;;17.30;99.90;;;;;;5034805;28;20210;-72
2023/09/30 03:12:48;;;;;;;5.45;5.05;;;17.30;99.90;;;;;;5036798;28;20215;-72
2023/09/30 03:15:15;;;;;;;5.43;5.03;;;17.30;99.90;;;;;;5037889;28;20210;-74
2023/09/30 03:17:43;;;;;;;5.03;4.65;;;17.30;99.90;;;;;;5033446;28;20214;-72
2023/09/30 03:20:12;;;;;;;5.60;5.10;;;17.20;99.90;;;;;;5038637;28;20191;-72
2023/09/30 03:22:42;;;;;;;5.72;5.32;;;17.20;99.90;;;;;;5034922;28;20781;-72
2023/09/30 03:25:11;;;;;;;5.55;5.00;;;17.20;99.90;;;;;;5037267;28;20199;-73
2023/09/30 03:27:38;;;;;;;5.70;5.20;;;17.20;99.90;;;;;;5039239;28;20202;-73
2023/09/30 03:30:06;;;;;;;5.13;4.72;;;17.20;99.90;;;;;;5038682;28;20461;-73
2023/09/30 03:32:34;;;;;;;5.75;5.20;;;17.20;99.90;;;;;;5038469;28;20227;-72
2023/09/30 03:35:01;;;;;;;5.78;5.13;;;17.10;99.90;;;;;;5040717;28;20202;-72
2023/09/30 03:37:28;;;;;;;5.32;4.85;;;17.10;99.90;;;;;;5036778;28;20337;-73
2023/09/30 03:39:57;;;;;;;5.68;5.18;;;17.10;99.90;;;;;;5036787;28;20203;-72
2023/09/30 03:42:24;;;;;;;5.70;5.20;;;17.10;99.90;;;;;;5038193;28;20195;-73
2023/09/30 03:44:51;;;;;;;5.15;4.75;;;17.10;99.90;;;;;;5039698;28;20194;-72
2023/09/30 03:47:20;;;;;;;5.72;5.32;;;17.20;99.90;;;;;;5038207;28;20292;-73
2023/09/30 03:49:48;;;;;;;5.85;5.35;;;17.10;99.90;;;;;;5040649;28;20215;-72
2023/09/30 03:52:15;;;;;;;5.60;5.20;;;17.10;99.90;;;;;;5038366;28;20720;-72
2023/09/30 03:54:42;;;;;;;5.70;5.20;;;17.00;99.90;;;;;;5034646;28;20253;-73
2023/09/30 03:57:12;;;;;;;6.00;5.50;;;17.00;99.90;;;;;;5038010;28;20284;-72
2023/09/30 03:59:40;;;;;;;6.25;5.75;;;17.00;99.90;;;;;;5039387;28;20293;-72
2023/09/30 04:02:08;;;;;;;6.75;6.13;;;17.00;99.90;;;;;;5034114;28;20207;-74
2023/09/30 04:04:37;;;;;;;6.25;5.70;;;17.00;99.90;;;;;;5039477;28;20211;-73
2023/09/30 04:07:05;;;;;;;5.43;4.93;;;17.10;99.90;;;;;;5040767;28;20957;-73
2023/09/30 04:09:32;;;;;;;6.10;5.50;;;17.10;99.90;;;;;;5037266;28;20206;-73
2023/09/30 04:12:00;;;;;;;5.70;5.30;;;17.00;99.90;;;;;;5040291;28;20251;-72
2023/09/30 04:14:28;;;;;;;6.32;5.72;;;17.00;99.90;;;;;;5039320;28;20230;-75
2023/09/30 04:16:55;;;;;;;5.63;5.13;;;17.00;99.90;;;;;;5042182;28;20226;-73
2023/09/30 04:19:22;;;;;;;5.55;5.00;;;17.00;99.90;;;;;;5038252;28;20203;-72
2023/09/30 04:21:50;;;;;;;5.40;4.90;;;16.90;99.90;;;;;;5035224;28;20215;-72
2023/09/30 04:24:19;;;;;;;5.07;4.68;;;16.80;99.90;;;;;;5039853;28;20239;-73
2023/09/30 04:26:48;;;;;;;5.88;5.38;;;16.80;99.90;;;;;;5035733;28;20227;-73
2023/09/30 04:29:15;;;;;;;5.47;5.07;;;16.80;99.90;;;;;;5036311;28;20253;-73
2023/09/30 04:31:43;;;;;;;6.20;5.60;;;16.70;99.90;;;;;;5037876;28;20697;-73
2023/09/30 04:34:10;;;;;;;5.95;5.45;;;16.70;99.90;;;;;;5035977;28;20191;-73
2023/09/30 04:36:37;;;;;;;6.00;5.40;;;16.70;99.90;;;;;;5037391;28;20223;-73
2023/09/30 04:39:05;;;;;;;5.45;5.05;;;16.70;99.90;;;;;;5038255;28;20660;-73
2023/09/30 04:41:32;;;;;;;5.63;5.22;;;16.60;99.90;;;;;;5040135;28;20302;-73
2023/09/30 04:44:00;;;;;;;4.88;4.57;;;16.60;99.90;;;;;;5037871;28;20190;-72
2023/09/30 04:46:27;;;;;;;5.20;4.78;;;16.60;99.90;;;;;;5038201;28;20237;-71
2023/09/30 04:48:56;;;;;;;5.63;5.18;;;16.70;99.90;;;;;;5035297;28;20212;-71
2023/09/30 04:51:25;;;;;;;6.00;5.43;;;16.80;99.90;;;;;;5038987;28;20195;-71
2023/09/30 04:53:52;;;;;;;6.82;6.22;;;17.00;99.90;;;;;;5040131;28;20589;-70
2023/09/30 04:56:21;;;;;;;7.03;6.20;;;17.10;99.90;;;;;;5040013;28;20215;-70
2023/09/30 04:58:48;;;;;;;7.22;6.07;;;17.30;99.90;;;;;;5040576;28;20199;-69
2023/09/30 05:01:18;;;;;;;6.60;6.05;;;17.40;99.90;;;;;;5039805;28;20203;-72
2023/09/30 05:03:48;;;;;;;7.20;6.50;;;17.50;99.90;;;;;;5040259;28;20191;-73
2023/09/30 05:06:17;;;;;;;7.30;6.30;;;17.50;99.90;;;;;;5039417;28;20612;-75
2023/09/30 05:08:44;;;;;;;6.65;6.05;;;17.60;99.90;;;;;;5038276;28;20337;-74
2023/09/30 05:11:11;;;;;;;6.30;5.80;;;17.70;99.90;;;;;;5038300;28;20195;-72
2023/09/30 05:13:38;;;;;;;5.70;5.30;;;17.70;99.90;;;;;;5036631;28;20219;-74
2023/09/30 05:16:07;;;;;;;6.95;6.35;;;17.60;99.90;;;;;;5016825;28;20227;-71
2023/09/30 05:18:34;;;;;;;9.52;6.82;;;17.70;99.90;;;;;;5032413;28;20218;-72
2023/09/30 05:21:01;;;;;;;7.57;6.88;;;17.80;99.90;;;;;;5035614;28;20270;-71
2023/09/30 05:23:30;;;;;;;6.63;6.10;;;17.60;99.90;;;;;;5035709;28;20231;-75
2023/09/30 05:25:57;;;;;;;7.35;6.63;;;17.60;99.90;;;;;;5041959;28;20228;-73
2023/09/30 05:28:24;;;;;;;6.88;6.18;;;17.40;99.90;;;;;;5042249;28;20680;-71
2023/09/30 05:30:53;;;;;;;6.95;5.80;;;17.40;99.90;;;;;;5039643;28;20749;-72
2023/09/30 05:33:20;;;;;;;11.20;6.68;;;17.30;99.90;;;;;;5041047;28;20641;-73
2023/09/30 05:35:47;;;;;;;6.45;5.65;;;17.30;99.90;;;;;;5040068;28;20288;-73
2023/09/30 05:38:14;;;;;;;6.32;5.55;;;17.30;99.90;;;;;;5032649;28;20282;-73
2023/09/30 05:40:44;;;;;;;6.13;5.63;;;17.30;99.90;;;;;;5032398;28;20273;-74
2023/09/30 05:43:13;;;;;;;6.25;5.60;;;17.30;99.90;;;;;;5036666;28;20215;-73
2023/09/30 05:45:48;;;;;;;5.93;5.43;;;17.20;99.90;;;;;;5034898;28;20315;-73
2023/09/30 05:48:16;;;;;;;6.85;6.20;;;17.20;99.90;;;;;;5035123;28;20202;-72
2023/09/30 05:50:43;;;;;;;5.80;5.30;;;17.20;99.90;;;;;;5036188;28;20467;-73
2023/09/30 05:53:11;;;;;;;6.05;5.55;;;17.20;99.90;;;;;;5034676;28;20215;-74
2023/09/30 05:55:42;;;;;;;5.90;5.40;;;17.20;99.90;;;;;;5037309;28;20594;-72
2023/09/30 05:58:13;;;;;;;5.93;5.30;;;17.10;99.90;;;;;;5031998;28;20627;-73
2023/09/30 06:00:41;;;;;;;5.95;5.45;;;17.00;99.90;;;;;;5035073;28;20207;-73
2023/09/30 06:03:10;;;;;;;5.70;5.20;;;16.90;99.90;;;;;;5034364;28;20808;-72
2023/09/30 06:05:40;;;;;;;5.55;5.05;;;16.80;99.90;;;;;;5031616;28;20235;-71
2023/09/30 06:08:10;;;;;;;5.10;4.70;;;16.80;99.90;;;;;;5036879;28;20268;-72
2023/09/30 06:10:42;;;;;;;6.15;5.43;;;16.80;99.90;;;;;;5032041;28;20252;-72
2023/09/30 06:13:11;;;;;;;5.90;5.40;;;17.00;99.90;;;;;;5033540;28;20215;-71
2023/09/30 06:15:41;;;;;;;5.70;5.20;;;17.40;99.90;;;;;;5035792;28;20227;-72
2023/09/30 06:18:09;;;;;;;5.65;5.20;;;17.90;99.90;;;;;;5045162;28;20203;-74
2023/09/30 06:20:36;;;;;;;5.15;4.75;;;18.40;99.90;;;;;;5040604;28;20574;-72
2023/09/30 06:23:04;;;;;;;6.28;5.68;;;18.70;99.90;;;;;;5038069;28;20245;-71
2023/09/30 06:25:33;;;;;;;5.68;5.18;;;19.10;99.90;;;;;;5034517;28;20344;-72
2023/09/30 06:28:00;;;;;;;6.07;5.57;;;19.30;99.90;;;;;;5035039;28;20723;-73
2023/09/30 06:30:33;;;;;;;8.85;5.93;;;19.60;99.90;;;;;;5034751;28;20211;-71
2023/09/30 06:33:01;;;;;;;6.40;5.65;;;19.90;99.90;;;;;;5036297;28;20746;-72
2023/09/30 06:35:29;;;;;;;6.18;5.72;;;20.30;99.90;;;;;;5031613;28;20235;-72
2023/09/30 06:37:57;;;;;;;6.18;5.57;;;20.40;99.90;;;;;;5041019;28;20203;-71
2023/09/30 06:40:24;;;;;;;6.35;5.85;;;20.50;99.90;;;;;;5034438;28;20252;-72
2023/09/30 06:42:51;;;;;;;6.07;5.68;;;20.70;99.90;;;;;;5041133;28;20287;-71
2023/09/30 06:45:19;;;;;;;6.70;6.10;;;20.90;99.90;;;;;;5033700;28;20200;-71
2023/09/30 06:47:47;;;;;;;6.57;5.82;;;21.10;99.90;;;;;;5038630;28;20199;-71
2023/09/30 06:50:16;;;;;;;5.40;4.93;;;21.30;99.90;;;;;;5034851;28;20252;-71
2023/09/30 06:52:45;;;;;;;6.18;5.65;;;21.50;99.90;;;;;;5037031;28;20637;-71
2023/09/30 06:55:16;;;;;;;5.90;5.25;;;21.60;99.90;;;;;;5037464;28;20206;-72
2023/09/30 06:57:43;;;;;;;6.47;5.88;;;21.80;99.90;;;;;;5030557;28;20203;-72
2023/09/30 07:00:12;;;;;;;6.18;5.57;;;21.80;99.90;;;;;;5035982;28;20443;-71
2023/09/30 07:02:41;;;;;;;6.18;5.68;;;21.80;99.90;;;;;;5034164;28;20264;-72
2023/09/30 07:05:11;;;;;;;5.40;5.00;;;22.00;99.90;;;;;;5032933;28;20235;-74
2023/09/30 07:07:39;;;;;;;6.57;5.28;;;22.50;99.90;;;;;;5034947;28;20204;-72
2023/09/30 07:10:08;;;;;;;5.30;4.88;;;22.70;99.90;;;;;;5038880;28;20256;-71
2023/09/30 07:12:35;;;;;;;6.20;5.18;;;22.90;99.90;;;;;;5034698;28;20257;-73
2023/09/30 07:15:03;;;;;;;6.45;5.85;;;23.00;99.90;;;;;;5037240;28;20200;-72
2023/09/30 07:17:30;;;;;;;5.85;5.35;;;23.20;99.90;;;;;;5033714;28;20290;-72
2023/09/30 07:19:57;;;;;;;6.03;5.22;;;23.50;99.90;;;;;;5036782;28;20198;-72
2023/09/30 07:22:26;;;;;;;5.47;5.03;;;23.80;99.90;;;;;;5039337;28;20541;-72
2023/09/30 07:24:53;;;;;;;7.53;5.80;;;24.00;99.90;;;;;;5034419;28;20206;-72
2023/09/30 07:27:20;;;;;;;6.35;5.53;;;24.10;99.90;;;;;;5033612;28;20693;-72
2023/09/30 07:29:48;;;;;;;5.50;5.00;;;23.80;99.90;;;;;;5037998;28;20656;-72
2023/09/30 07:32:15;;;;;;;7.50;6.15;;;23.70;99.90;;;;;;5032100;28;20228;-73
2023/09/30 07:34:42;;;;;;;6.28;5.70;;;23.80;99.90;;;;;;5038442;28;20211;-73
2023/09/30 07:37:09;;;;;;;5.65;5.15;;;23.70;99.90;;;;;;5033895;28;20593;-72
2023/09/30 07:39:38;;;;;;;6.20;5.60;;;23.60;99.90;;;;;;5038889;28;20203;-72
2023/09/30 07:42:05;;;;;;;10.23;5.80;;;23.60;99.90;;;;;;5036197;28;20200;-72
2023/09/30 07:44:33;;;;;;;5.57;5.05;;;23.70;99.90;;;;;;5033260;28;20489;-73
2023/09/30 07:47:00;;;;;;;6.25;5.65;;;23.90;99.90;;;;;;5035928;28;20224;-74
2023/09/30 07:49:27;;;;;;;5.72;5.10;;;24.20;99.90;;;;;;5036704;28;20665;-73
2023/09/30 07:51:54;;;;;;;5.43;5.00;;;24.30;99.90;;;;;;5036351;28;20195;-72
2023/09/30 07:54:21;;;;;;;5.68;5.18;;;24.40;99.90;;;;;;5034655;28;20270;-72
2023/09/30 07:56:49;;;;;;;6.13;5.55;;;24.50;99.90;;;;;;5033139;28;20306;-72
2023/09/30 07:59:17;;;;;;;6.47;5.70;;;24.60;99.90;;;;;;5037361;28;20206;-74
2023/09/30 08:01:45;;;;;;;7.07;5.80;;;24.60;99.90;;;;;;5030168;28;20552;-72
2023/09/30 08:04:12;;;;;;;6.20;5.65;;;24.30;99.90;;;;;;5050851;28;20233;-73
2023/09/30 08:06:39;;;;;;;6.22;5.50;;;24.20;99.90;;;;;;5035044;28;20285;-72
2023/09/30 08:09:09;;;;;;;6.80;6.20;;;24.10;99.90;;;;;;5037912;28;20230;-72
2023/09/30 08:11:37;;;;;;;6.80;5.28;;;24.10;99.90;;;;;;5038023;28;20207;-72
2023/09/30 08:14:06;;;;;;;6.00;5.45;;;24.20;99.90;;;;;;5032516;28;20273;-73
2023/09/30 08:16:34;;;;;;;5.75;5.15;;;24.40;99.90;;;;;;5037526;28;20288;-72
2023/09/30 08:19:01;;;;;;;6.07;5.57;;;24.60;99.90;;;;;;5041900;28;20599;-72
2023/09/30 08:21:28;;;;;;;6.30;5.72;;;24.70;99.90;;;;;;5041955;28;20248;-72
2023/09/30 08:23:55;;;;;;;5.43;4.95;;;24.80;99.90;;;;;;5041279;28;20199;-72
2023/09/30 08:26:22;;;;;;;5.80;5.13;;;24.80;99.90;;;;;;5039323;28;20770;-72
2023/09/30 08:28:49;;;;;;;6.57;5.97;;;24.80;99.90;;;;;;5038533;28;20664;-72
2023/09/30 08:31:18;;;;;;;7.28;6.43;;;24.60;99.90;;;;;;5040330;28;20290;-73
2023/09/30 08:33:45;;;;;;;5.80;5.30;;;24.50;99.90;;;;;;5039839;28;20218;-72
2023/09/30 08:36:13;;;;;;;6.13;5.50;;;24.50;99.90;;;;;;5027029;28;20215;-74
2023/09/30 08:38:41;;;;;;;5.20;4.75;;;24.70;99.90;;;;;;5037368;28;20268;-72
2023/09/30 08:41:09;;;;;;;5.82;5.28;;;24.80;99.90;;;;;;5038994;28;20218;-72
2023/09/30 08:43:39;;;;;;;6.68;5.93;;;25.00;99.90;;;;;;5031868;28;20618;-72
2023/09/30 08:46:08;;;;;;;5.65;5.15;;;25.00;99.90;;;;;;5039962;28;20223;-72
2023/09/30 08:48:37;;;;;;;5.82;5.22;;;24.90;99.90;;;;;;5033712;28;20269;-73
2023/09/30 08:51:04;;;;;;;5.10;4.70;;;24.90;99.90;;;;;;5037772;28;20200;-73
2023/09/30 08:53:31;;;;;;;5.28;4.78;;;25.00;99.90;;;;;;5038904;28;20255;-73
2023/09/30 08:56:00;;;;;;;5.78;5.18;;;25.20;99.90;;;;;;5044480;28;20225;-72
2023/09/30 08:58:29;;;;;;;4.63;4.13;;;25.30;99.90;;;;;;5040276;28;20195;-73
2023/09/30 09:00:57;;;;;;;5.45;4.95;;;25.30;99.90;;;;;;5039278;28;20551;-72
2023/09/30 09:03:24;;;;;;;5.40;4.90;;;25.50;99.90;;;;;;5038401;28;20749;-73
2023/09/30 09:05:57;;;;;;;5.25;4.75;;;25.80;99.90;;;;;;5036148;28;20708;-72
2023/09/30 09:08:24;;;;;;;5.45;4.93;;;26.20;99.90;;;;;;5041382;28;20195;-73
2023/09/30 09:10:56;;;;;;;5.80;5.30;;;26.40;99.90;;;;;;5039876;28;20207;-72
2023/09/30 09:13:23;;;;;;;5.82;5.32;;;26.30;99.90;;;;;;5034454;28;20209;-73
2023/09/30 09:15:50;;;;;;;5.50;5.00;;;26.40;99.90;;;;;;5036019;28;20231;-73
2023/09/30 09:18:33;;;;;;;5.35;4.95;;;26.40;99.90;;;;;;5033392;28;20199;-73
2023/09/30 09:21:12;;;;;;;6.00;5.50;;;26.40;99.90;;;;;;5038368;28;20298;-72
2023/09/30 09:23:43;;;;;;;5.40;5.00;;;26.40;99.90;;;;;;5037498;28;20199;-72
2023/09/30 09:26:12;;;;;;;5.80;5.30;;;26.00;99.90;;;;;;5038850;28;20222;-73
2023/09/30 09:28:39;;;;;;;5.53;5.03;;;26.00;99.90;;;;;;5039560;28;20282;-74
2023/09/30 09:31:23;;;;;;;5.72;5.22;;;25.90;99.90;;;;;;5036150;28;20281;-71
2023/09/30 09:33:51;;;;;;;5.90;5.38;;;25.90;99.90;;;;;;5036174;28;20598;-71
2023/09/30 09:36:20;;;;;;;5.45;4.95;;;25.90;99.90;;;;;;5038598;28;20231;-71
2023/09/30 09:38:49;;;;;;;5.38;4.80;;;26.20;99.90;;;;;;5039578;28;20264;-73
2023/09/30 09:41:17;;;;;;;5.25;4.82;;;26.50;99.90;;;;;;5041080;28;20578;-72
2023/09/30 09:43:45;;;;;;;5.47;4.50;;;26.40;99.90;;;;;;5035747;28;20726;-71
2023/09/30 09:46:13;;;;;;;4.95;4.55;;;26.50;99.90;;;;;;5040593;28;20301;-73
2023/09/30 09:48:41;;;;;;;5.90;4.93;;;26.80;99.90;;;;;;5033016;28;20207;-74
2023/09/30 09:51:12;;;;;;;5.05;4.63;;;26.90;99.90;;;;;;5039419;28;20199;-74
2023/09/30 09:53:43;;;;;;;5.78;4.68;;;27.20;99.90;;;;;;5032609;28;20233;-73
2023/09/30 09:56:11;;;;;;;4.97;4.57;;;27.00;99.90;;;;;;5030470;28;20230;-72
2023/09/30 09:58:42;;;;;;;5.43;4.93;;;27.10;99.90;;;;;;5035305;28;20211;-72
2023/09/30 10:01:11;;;;;;;5.88;5.28;;;27.30;99.90;;;;;;5034179;28;20366;-71
2023/09/30 10:03:40;;;;;;;5.95;5.10;;;27.40;99.90;;;;;;5038069;28;20206;-72
2023/09/30 10:06:08;;;;;;;5.47;5.00;;;27.50;99.90;;;;;;5038233;28;20223;-72
2023/09/30 10:08:42;;;;;;;7.18;5.47;;;27.50;99.90;;;;;;5038956;28;20203;-72
2023/09/30 10:11:10;;;;;;;6.50;4.80;;;27.30;99.90;;;;;;5035972;28;20249;-72
2023/09/30 10:13:57;;;;;;;6.15;5.30;;;27.20;99.90;;;;;;5033713;28;20211;-72
2023/09/30 10:16:50;;;;;;;4.90;4.40;;;27.00;99.90;;;;;;5035224;28;20219;-71
2023/09/30 10:19:22;;;;;;;5.68;4.72;;;26.90;99.90;;;;;;5039478;28;20195;-72
2023/09/30 10:22:26;;;;;;;5.88;5.22;;;26.90;99.90;;;;;;5035815;28;20359;-73
2023/09/30 10:24:56;;;;;;;8.15;5.43;;;27.10;99.90;;;;;;5032774;28;20658;-72
2023/09/30 10:27:34;;;;;;;5.40;4.90;;;27.10;99.90;;;;;;5035322;28;20224;-72
2023/09/30 10:30:14;;;;;;;6.28;4.60;;;27.20;99.90;;;;;;5033095;28;20195;-73
2023/09/30 10:33:12;;;;;;;6.82;5.05;;;27.30;99.90;;;;;;5036075;28;20207;-71
2023/09/30 10:35:57;;;;;;;5.30;4.50;;;27.00;99.90;;;;;;5034820;28;20576;-71
2023/09/30 10:38:42;;;;;;;5.45;5.00;;;27.10;99.90;;;;;;5035688;28;20198;-71
2023/09/30 10:41:12;;;;;;;5.03;4.63;;;27.40;99.90;;;;;;5040815;28;20282;-72
2023/09/30 10:43:42;;;;;;;5.68;4.97;;;27.50;99.90;;;;;;5039850;28;20655;-73
2023/09/30 10:46:34;;;;;;;5.13;4.72;;;27.70;99.90;;;;;;5037627;28;20218;-72
2023/09/30 10:49:32;;;;;;;7.93;4.75;;;27.60;99.90;;;;;;5031134;28;20282;-72
2023/09/30 10:52:01;;;;;;;5.07;4.63;;;27.40;99.90;;;;;;5033125;28;20293;-73
2023/09/30 10:54:30;;;;;;;5.05;4.38;;;27.60;99.90;;;;;;5034515;28;21620;-71
2023/09/30 10:57:03;;;;;;;5.43;5.03;;;27.30;99.90;;;;;;5033726;28;20246;-72
2023/09/30 10:59:31;;;;;;;5.22;4.72;;;27.10;99.90;;;;;;5032522;28;20200;-72
2023/09/30 11:01:58;;;;;;;5.43;4.47;;;26.90;99.90;;;;;;5036004;28;20217;-71
2023/09/30 11:04:27;;;;;;;5.38;4.63;;;27.00;99.90;;;;;;5034516;28;20571;-72
2023/09/30 11:06:54;;;;;;;5.88;5.32;;;27.30;99.90;;;;;;5033610;28;20713;-71
2023/09/30 11:09:22;;;;;;;4.72;4.32;;;27.50;99.90;;;;;;5036961;28;20227;-72
2023/09/30 11:11:51;;;;;;;4.68;4.30;;;27.60;99.90;;;;;;5034561;28;20202;-71
2023/09/30 11:14:21;;;;;;;5.45;4.95;;;27.70;99.90;;;;;;5031352;28;20276;-73
2023/09/30 11:16:49;;;;;;;7.03;5.05;;;27.80;99.90;;;;;;5037447;28;20219;-72
2023/09/30 11:19:16;;;;;;;6.88;5.43;;;27.70;99.90;;;;;;5039475;28;20203;-72
2023/09/30 11:21:44;;;;;;;5.25;4.32;;;27.40;99.90;;;;;;5037497;28;20207;-72
2023/09/30 11:24:12;;;;;;;5.13;4.72;;;27.10;99.90;;;;;;5038758;28;20443;-72
2023/09/30 11:26:41;;;;;;;5.28;4.70;;;27.30;99.90;;;;;;5039874;28;20321;-72
2023/09/30 11:29:10;;;;;;;5.07;4.63;;;27.30;99.90;;;;;;5039398;28;20285;-72
2023/09/30 11:31:40;;;;;;;5.20;4.70;;;27.40;99.90;;;;;;5037952;28;20292;-72
2023/09/30 11:34:07;;;;;;;5.55;5.05;;;27.70;99.90;;;;;;5036397;28;20230;-73
2023/09/30 11:36:36;;;;;;;4.70;4.30;;;27.80;99.90;;;;;;5034477;28;20225;-74
2023/09/30 11:39:03;;;;;;;5.40;4.60;;;27.90;99.90;;;;;;5035682;28;20195;-72
2023/09/30 11:41:41;;;;;;;4.75;4.35;;;27.90;99.90;;;;;;5031944;28;20253;-72
2023/09/30 11:44:10;;;;;;;5.07;4.38;;;27.90;99.90;;;;;;5035134;28;20212;-72
2023/09/30 11:46:59;;;;;;;5.60;4.10;;;27.90;99.90;;;;;;5032712;28;20281;-73
2023/09/30 11:49:28;;;;;;;3.95;3.65;;;27.90;99.90;;;;;;5037128;28;20203;-72
2023/09/30 11:51:55;;;;;;;4.57;4.18;;;27.90;99.90;;;;;;5031707;28;20196;-72
2023/09/30 11:54:23;;;;;;;4.80;4.32;;;27.80;99.90;;;;;;5040460;28;20857;-72
2023/09/30 11:56:50;;;;;;;4.30;4.00;;;27.80;99.90;;;;;;5041595;28;20258;-72
2023/09/30 11:59:19;;;;;;;4.68;4.20;;;27.60;99.90;;;;;;5041117;28;20226;-75
2023/09/30 12:01:48;;;;;;;4.43;4.03;;;27.60;99.90;;;;;;5039486;28;20283;-73
2023/09/30 12:04:19;;;;;;;4.60;4.20;;;27.60;99.90;;;;;;5037386;28;20203;-72
2023/09/30 12:06:47;;;;;;;4.40;4.10;;;27.80;99.90;;;;;;5039070;28;20750;-72
2023/09/30 12:09:14;;;;;;;4.75;4.35;;;27.90;99.90;;;;;;5039809;28;20210;-73
2023/09/30 12:11:43;;;;;;;4.68;4.20;;;28.00;99.90;;;;;;5036979;28;20281;-72
2023/09/30 12:14:11;;;;;;;6.22;4.20;;;28.00;99.90;;;;;;5039451;28;20294;-73
2023/09/30 12:16:38;;;;;;;4.55;3.78;;;28.00;99.90;;;;;;5041067;28;20231;-72
2023/09/30 12:19:06;;;;;;;4.47;4.07;;;28.00;99.90;;;;;;5037702;28;20204;-72
2023/09/30 12:21:36;;;;;;;4.47;4.07;;;28.00;99.90;;;;;;5038861;28;20540;-72
2023/09/30 12:24:04;;;;;;;4.55;4.15;;;28.00;99.90;;;;;;5042527;28;20202;-73
2023/09/30 12:26:31;;;;;;;4.53;4.10;;;28.20;99.90;;;;;;5045009;28;20772;-75
2023/09/30 12:28:59;;;;;;;4.35;4.05;;;28.30;99.90;;;;;;5040090;28;20294;-72
2023/09/30 12:31:26;;;;;;;4.93;4.53;;;28.20;99.90;;;;;;5041332;28;20199;-72
2023/09/30 12:33:54;;;;;;;4.40;4.00;;;28.20;99.90;;;;;;5038607;28;20269;-72
2023/09/30 12:36:22;;;;;;;4.38;3.97;;;28.00;99.90;;;;;;5041580;28;20268;-72
2023/09/30 12:38:50;;;;;;;4.10;3.80;;;28.10;99.90;;;;;;5041503;28;20281;-73
2023/09/30 12:41:19;;;;;;;4.95;4.22;;;28.10;99.90;;;;;;5041119;28;20681;-72
2023/09/30 12:43:46;;;;;;;5.18;4.00;;;28.20;99.90;;;;;;5035027;28;20759;-72
2023/09/30 12:46:13;;;;;;;4.55;4.15;;;28.30;99.90;;;;;;5038246;28;20216;-72
2023/09/30 12:48:41;;;;;;;4.60;4.20;;;28.10;99.90;;;;;;5043342;28;20207;-72
2023/09/30 12:51:08;;;;;;;5.90;4.00;;;28.10;99.90;;;;;;5038985;28;20195;-72
2023/09/30 12:53:35;;;;;;;4.97;4.30;;;28.00;99.90;;;;;;5039603;28;20202;-72
2023/09/30 12:56:04;;;;;;;4.68;4.28;;;28.00;99.90;;;;;;5042223;28;20264;-71